createdAt,value
2023-07-16T00:02:39.778Z,100177.13
2023-07-16T00:05:42.488Z,100180.84
2023-07-16T00:08:44.749Z,100200.88
2023-07-16T00:11:47.697Z,100201.75
2023-07-16T00:14:50.198Z,100187.50
2023-07-16T00:17:52.969Z,100197.84
2023-07-16T00:20:55.453Z,100198.72
2023-07-16T00:23:58.169Z,100178.03
2023-07-16T00:27:00.518Z,100201.31
2023-07-16T00:30:04.471Z,100192.53
2023-07-16T00:33:06.991Z,100187.50
2023-07-16T00:36:10.295Z,100203.13
2023-07-16T00:39:12.616Z,100201.97
2023-07-16T00:42:15.392Z,100195.94
2023-07-16T00:45:17.987Z,100191.16
2023-07-16T00:48:21.139Z,100198.12
2023-07-16T00:51:25.780Z,100192.56
2023-07-16T00:54:30.703Z,100174.72
2023-07-16T00:57:34.206Z,100179.06
2023-07-16T01:00:41.094Z,100174.00
2023-07-16T01:03:43.496Z,100172.47
2023-07-16T01:06:52.318Z,100164.12
2023-07-16T01:09:56.177Z,100174.88
2023-07-16T01:12:59.676Z,100163.44
2023-07-16T01:16:02.113Z,100157.53
2023-07-16T01:19:05.250Z,100163.16
2023-07-16T01:22:59.019Z,100175.09
2023-07-16T01:26:12.519Z,100172.75
2023-07-16T01:29:30.309Z,100173.63
2023-07-16T01:32:34.495Z,100178.88
2023-07-16T01:35:38.260Z,100174.91
2023-07-16T01:38:41.062Z,100170.56
2023-07-16T01:41:43.548Z,100160.38
2023-07-16T01:44:46.275Z,100173.94
2023-07-16T01:48:00.210Z,100159.63
2023-07-16T01:51:04.337Z,100166.84
2023-07-16T01:54:07.002Z,100172.03
2023-07-16T01:57:09.822Z,100168.50
2023-07-16T02:00:12.669Z,100159.88
2023-07-16T02:03:21.864Z,100137.66
2023-07-16T02:06:24.822Z,100160.00
2023-07-16T02:09:27.303Z,100176.75
2023-07-16T02:12:30.002Z,100158.03
2023-07-16T02:15:32.451Z,100159.25
2023-07-16T02:18:35.274Z,100168.00
2023-07-16T02:21:37.621Z,100151.31
2023-07-16T02:24:40.284Z,100145.78
2023-07-16T02:27:42.635Z,100161.72
2023-07-16T02:30:45.435Z,100141.84
2023-07-16T02:33:48.027Z,100137.88
2023-07-16T02:36:50.752Z,100157.78
2023-07-16T02:39:53.105Z,100160.25
2023-07-16T02:42:55.809Z,100144.34
2023-07-16T02:45:58.138Z,100156.47
2023-07-16T02:49:01.201Z,100153.25
2023-07-16T02:52:03.817Z,100166.41
2023-07-16T02:55:06.980Z,100165.25
2023-07-16T02:58:09.586Z,100167.72
2023-07-16T03:01:12.620Z,100150.19
2023-07-16T03:04:15.116Z,100161.78
2023-07-16T03:07:17.774Z,100155.84
2023-07-16T03:10:20.952Z,100154.97
2023-07-16T03:13:24.063Z,100153.47
2023-07-16T03:16:27.063Z,100169.00
2023-07-16T03:19:29.824Z,100167.78
2023-07-16T03:22:32.477Z,100183.47
2023-07-16T03:25:35.191Z,100180.75
2023-07-16T03:28:37.700Z,100166.06
2023-07-16T03:31:40.861Z,100172.09
2023-07-16T03:34:43.444Z,100187.22
2023-07-16T03:37:46.164Z,100196.06
2023-07-16T03:40:50.206Z,100196.00
2023-07-16T03:43:52.915Z,100196.81
2023-07-16T03:46:55.552Z,100199.97
2023-07-16T03:49:58.357Z,100188.91
2023-07-16T03:53:00.689Z,100198.41
2023-07-16T03:56:03.399Z,100196.50
2023-07-16T03:59:05.880Z,100204.56
2023-07-16T04:02:08.667Z,100193.41
2023-07-16T04:05:11.656Z,100202.69
2023-07-16T04:08:14.563Z,100206.63
2023-07-16T04:11:18.226Z,100208.16
2023-07-16T04:14:20.549Z,100197.81
2023-07-16T04:17:23.192Z,100218.19
2023-07-16T04:20:25.980Z,100206.63
2023-07-16T04:23:28.706Z,100203.84
2023-07-16T04:26:31.216Z,100213.34
2023-07-16T04:29:33.980Z,100215.41
2023-07-16T04:32:36.407Z,100228.53
2023-07-16T04:35:39.175Z,100220.09
2023-07-16T04:38:41.553Z,100228.91
2023-07-16T04:41:44.312Z,100225.28
2023-07-16T04:44:46.751Z,100227.63
2023-07-16T04:47:52.075Z,100234.41
2023-07-16T04:50:54.416Z,100221.59
2023-07-16T04:53:57.134Z,100233.41
2023-07-16T04:56:59.514Z,100227.75
2023-07-16T05:00:02.272Z,100230.28
2023-07-16T05:03:04.916Z,100245.38
2023-07-16T05:06:07.843Z,100228.50
2023-07-16T05:09:10.303Z,100240.00
2023-07-16T05:12:12.924Z,100241.94
2023-07-16T05:15:16.486Z,100250.34
2023-07-16T05:18:19.264Z,100239.88
2023-07-16T05:21:21.677Z,100247.72
2023-07-16T05:24:24.544Z,100249.63
2023-07-16T05:27:26.983Z,100254.19
2023-07-16T05:30:29.830Z,100248.47
2023-07-16T05:33:32.533Z,100243.53
2023-07-16T05:36:35.584Z,100227.50
2023-07-16T05:39:38.528Z,100246.50
2023-07-16T05:42:41.119Z,100246.44
2023-07-16T05:45:43.658Z,100230.84
2023-07-16T05:48:46.413Z,100250.34
2023-07-16T05:51:49.747Z,100246.22
2023-07-16T05:54:52.413Z,100236.63
2023-07-16T05:57:54.828Z,100231.78
2023-07-16T06:00:57.616Z,100250.84
2023-07-16T06:04:00.439Z,100237.22
2023-07-16T06:07:03.842Z,100246.66
2023-07-16T06:10:07.379Z,100269.69
2023-07-16T06:13:09.789Z,100248.72
2023-07-16T06:16:12.530Z,100259.56
2023-07-16T06:19:15.877Z,100261.78
2023-07-16T06:22:18.876Z,100248.84
2023-07-16T06:25:21.324Z,100259.28
2023-07-16T06:28:24.886Z,100259.84
2023-07-16T06:31:27.349Z,100254.37
2023-07-16T06:34:30.055Z,100266.75
2023-07-16T06:37:32.425Z,100256.19
2023-07-16T06:40:35.261Z,100270.53
2023-07-16T06:43:37.664Z,100257.22
2023-07-16T06:46:40.498Z,100265.50
2023-07-16T06:49:43.088Z,100252.53
2023-07-16T06:52:45.752Z,100256.09
2023-07-16T06:55:51.061Z,100256.59
2023-07-16T06:58:53.754Z,100245.72
2023-07-16T07:01:56.219Z,100261.63
2023-07-16T07:04:59.714Z,100255.19
2023-07-16T07:08:01.918Z,100244.81
2023-07-16T07:11:05.642Z,100251.75
2023-07-16T07:14:09.312Z,100248.25
2023-07-16T07:17:13.509Z,100244.94
2023-07-16T07:20:17.827Z,100234.47
2023-07-16T07:23:20.562Z,100252.88
2023-07-16T07:26:23.027Z,100258.75
2023-07-16T07:29:25.625Z,100238.72
2023-07-16T07:32:28.048Z,100235.59
2023-07-16T07:35:30.637Z,100243.84
2023-07-16T07:38:33.083Z,100245.53
2023-07-16T07:41:35.810Z,100256.31
2023-07-16T07:44:38.338Z,100250.41
2023-07-16T07:47:41.131Z,100245.91
2023-07-16T07:50:43.616Z,100237.56
2023-07-16T07:53:46.388Z,100236.31
2023-07-16T07:56:48.901Z,100241.72
2023-07-16T07:59:56.353Z,100242.31
2023-07-16T08:02:58.823Z,100240.66
2023-07-16T08:06:01.549Z,100235.97
2023-07-16T08:09:04.009Z,100243.25
2023-07-16T08:12:06.746Z,100235.16
2023-07-16T08:15:15.042Z,100245.75
2023-07-16T08:18:17.719Z,100231.72
2023-07-16T08:21:23.172Z,100234.09
2023-07-16T08:24:27.201Z,100240.41
2023-07-16T08:27:29.533Z,100233.75
2023-07-16T08:30:34.228Z,100226.50
2023-07-16T08:33:36.765Z,100225.00
2023-07-16T08:36:39.371Z,100223.91
2023-07-16T08:39:42.037Z,100227.56
2023-07-16T08:42:50.130Z,100223.53
2023-07-16T08:45:52.770Z,100225.09
2023-07-16T08:48:57.582Z,100236.50
2023-07-16T08:52:02.165Z,100221.84
2023-07-16T08:55:07.044Z,100221.22
2023-07-16T08:58:09.752Z,100222.78
2023-07-16T09:01:13.950Z,100221.47
2023-07-16T09:04:17.672Z,100227.25
2023-07-16T09:07:22.568Z,100228.78
2023-07-16T09:10:26.109Z,100215.00
2023-07-16T09:13:30.428Z,100231.59
2023-07-16T09:16:35.742Z,100224.72
2023-07-16T09:19:38.438Z,100216.41
2023-07-16T09:22:40.931Z,100242.19
2023-07-16T09:25:44.820Z,100230.50
2023-07-16T09:28:49.906Z,100225.88
2023-07-16T09:32:06.398Z,100219.19
2023-07-16T09:35:13.436Z,100216.22
2023-07-16T09:38:17.177Z,100222.97
2023-07-16T09:41:20.459Z,100233.84
2023-07-16T09:44:23.172Z,100246.44
2023-07-16T09:47:26.435Z,100229.56
2023-07-16T09:50:31.632Z,100216.75
2023-07-16T09:53:34.786Z,100221.88
2023-07-16T09:56:41.432Z,100221.59
2023-07-16T09:59:45.227Z,100218.22
2023-07-16T10:02:48.646Z,100212.34
2023-07-16T10:05:52.530Z,100228.09
2023-07-16T10:08:54.866Z,100211.00
2023-07-16T10:12:09.044Z,100217.22
2023-07-16T10:15:14.696Z,100217.09
2023-07-16T10:18:35.788Z,100214.47
2023-07-16T10:21:39.768Z,100209.06
2023-07-16T10:24:42.783Z,100194.75
2023-07-16T10:27:46.866Z,100202.03
2023-07-16T10:30:51.413Z,100194.97
2023-07-16T10:34:06.115Z,100186.88
2023-07-16T10:37:09.098Z,100188.31
2023-07-16T10:40:12.240Z,100194.03
2023-07-16T10:43:16.055Z,100202.31
2023-07-16T10:46:18.808Z,100189.31
2023-07-16T10:49:29.615Z,100194.03
2023-07-16T10:52:32.182Z,100186.47
2023-07-16T10:55:39.015Z,100193.00
2023-07-16T10:58:41.958Z,100180.72
2023-07-16T11:01:45.192Z,100191.41
2023-07-16T11:04:48.628Z,100196.37
2023-07-16T11:07:54.969Z,100188.28
2023-07-16T11:10:58.820Z,100184.00
2023-07-16T11:14:04.297Z,100185.94
2023-07-16T11:17:10.327Z,100188.28
2023-07-16T11:20:13.261Z,100187.25
2023-07-16T11:23:15.662Z,100167.88
2023-07-16T11:26:18.513Z,100165.28
2023-07-16T11:29:21.100Z,100163.41
2023-07-16T11:32:44.095Z,100173.41
2023-07-16T11:35:49.033Z,100168.19
2023-07-16T11:38:51.790Z,100159.06
2023-07-16T11:41:59.085Z,100166.31
2023-07-16T11:45:03.753Z,100170.28
2023-07-16T11:48:06.793Z,100172.81
2023-07-16T11:51:10.037Z,100162.37
2023-07-16T11:54:12.557Z,100160.56
2023-07-16T11:57:15.328Z,100175.94
2023-07-16T12:00:18.680Z,100168.34
2023-07-16T12:03:21.448Z,100172.66
2023-07-16T12:06:23.924Z,100161.44
2023-07-16T12:09:26.725Z,100172.34
2023-07-16T12:12:28.913Z,100169.28
2023-07-16T12:15:31.505Z,100165.81
2023-07-16T12:18:34.265Z,100154.94
2023-07-16T12:21:37.505Z,100160.91
2023-07-16T12:24:39.837Z,100147.12
2023-07-16T12:27:42.614Z,100137.25
2023-07-16T12:30:44.999Z,100152.97
2023-07-16T12:33:48.272Z,100159.50
2023-07-16T12:36:50.630Z,100149.03
2023-07-16T12:39:53.497Z,100168.81
2023-07-16T12:42:55.821Z,100158.00
2023-07-16T12:45:58.617Z,100146.16
2023-07-16T12:49:01.049Z,100152.03
2023-07-16T12:52:03.921Z,100148.31
2023-07-16T12:55:06.257Z,100156.69
2023-07-16T12:58:08.833Z,100148.41
2023-07-16T13:01:11.488Z,100140.19
2023-07-16T13:04:14.183Z,100136.50
2023-07-16T13:07:16.549Z,100151.72
2023-07-16T13:10:24.105Z,100161.28
2023-07-16T13:13:26.832Z,100157.78
2023-07-16T13:16:29.529Z,100156.81
2023-07-16T13:19:32.101Z,100160.50
2023-07-16T13:22:34.681Z,100156.81
2023-07-16T13:25:39.545Z,100154.69
2023-07-16T13:28:42.251Z,100146.28
2023-07-16T13:31:44.739Z,100165.28
2023-07-16T13:34:47.471Z,100152.09
2023-07-16T13:37:49.830Z,100154.44
2023-07-16T13:40:52.398Z,100150.84
2023-07-16T13:43:54.769Z,100161.28
2023-07-16T13:46:57.378Z,100165.03
2023-07-16T13:49:59.866Z,100154.84
2023-07-16T13:53:03.025Z,100137.59
2023-07-16T13:56:05.485Z,100159.94
2023-07-16T13:59:08.331Z,100132.63
2023-07-16T14:02:10.726Z,100148.50
2023-07-16T14:05:13.369Z,100142.97
2023-07-16T14:08:15.778Z,100126.75
2023-07-16T14:11:19.516Z,100144.97
2023-07-16T14:14:23.161Z,100143.47
2023-07-16T14:17:25.835Z,100134.34
2023-07-16T14:20:28.394Z,100141.25
2023-07-16T14:23:31.072Z,100137.12
2023-07-16T14:26:34.690Z,100137.53
2023-07-16T14:29:40.637Z,100130.84
2023-07-16T14:32:50.157Z,100126.03
2023-07-16T14:35:52.908Z,100125.25
2023-07-16T14:38:55.843Z,100124.66
2023-07-16T14:41:58.481Z,100113.38
2023-07-16T14:45:01.079Z,100122.59
2023-07-16T14:48:05.837Z,100109.81
2023-07-16T14:51:08.567Z,100105.25
2023-07-16T14:54:11.454Z,100110.69
2023-07-16T14:57:13.737Z,100113.22
2023-07-16T15:00:16.524Z,100098.31
2023-07-16T15:03:19.061Z,100106.66
2023-07-16T15:06:22.036Z,100098.94
2023-07-16T15:09:24.582Z,100093.78
2023-07-16T15:12:27.443Z,100099.78
2023-07-16T15:15:29.888Z,100100.66
2023-07-16T15:18:32.606Z,100089.66
2023-07-16T15:21:35.023Z,100093.94
2023-07-16T15:24:37.961Z,100089.22
2023-07-16T15:27:40.374Z,100103.66
2023-07-16T15:30:42.913Z,100111.00
2023-07-16T15:33:45.260Z,100109.59
2023-07-16T15:36:47.724Z,100110.59
2023-07-16T15:39:50.265Z,100108.81
2023-07-16T15:42:54.185Z,100090.53
2023-07-16T15:45:56.638Z,100097.63
2023-07-16T15:48:59.245Z,100106.31
2023-07-16T15:52:01.667Z,100109.09
2023-07-16T15:55:04.992Z,100094.53
2023-07-16T15:58:07.341Z,100111.69
2023-07-16T16:01:10.288Z,100087.09
2023-07-16T16:04:13.408Z,100098.97
2023-07-16T16:07:15.633Z,100092.56
2023-07-16T16:10:18.212Z,100100.56
2023-07-16T16:13:22.473Z,100082.56
2023-07-16T16:16:25.191Z,100089.84
2023-07-16T16:19:27.530Z,100094.16
2023-07-16T16:22:30.211Z,100100.66
2023-07-16T16:25:36.949Z,100092.00
2023-07-16T16:28:41.269Z,100087.50
2023-07-16T16:31:43.819Z,100097.94
2023-07-16T16:34:48.626Z,100099.91
2023-07-16T16:37:51.357Z,100107.47
2023-07-16T16:40:55.671Z,100092.16
2023-07-16T16:43:58.025Z,100093.75
2023-07-16T16:47:00.785Z,100110.97
2023-07-16T16:50:04.087Z,100104.09
2023-07-16T16:53:07.023Z,100109.19
2023-07-16T16:56:09.540Z,100115.37
2023-07-16T16:59:12.195Z,100104.16
2023-07-16T17:02:14.832Z,100110.03
2023-07-16T17:05:17.506Z,100112.38
2023-07-16T17:08:19.963Z,100110.22
2023-07-16T17:11:22.714Z,100107.12
2023-07-16T17:14:25.457Z,100118.84
2023-07-16T17:17:29.284Z,100111.56
2023-07-16T17:20:31.949Z,100099.59
2023-07-16T17:23:35.496Z,100113.19
2023-07-16T17:26:38.874Z,100117.00
2023-07-16T17:29:43.225Z,100126.53
2023-07-16T17:32:48.910Z,100111.25
2023-07-16T17:35:51.700Z,100105.72
2023-07-16T17:38:54.331Z,100115.84
2023-07-16T17:41:56.840Z,100123.50
2023-07-16T17:44:59.221Z,100122.56
2023-07-16T17:48:02.042Z,100126.09
2023-07-16T17:51:05.427Z,100113.62
2023-07-16T17:54:08.154Z,100115.69
2023-07-16T17:57:10.862Z,100131.50
2023-07-16T18:00:24.046Z,100115.13
2023-07-16T18:03:27.745Z,100135.00
2023-07-16T18:06:31.415Z,100141.66
2023-07-16T18:09:35.291Z,100137.88
2023-07-16T18:12:37.763Z,100137.75
2023-07-16T18:15:40.653Z,100136.34
2023-07-16T18:18:43.083Z,100138.56
2023-07-16T18:21:51.669Z,100132.28
2023-07-16T18:25:10.833Z,100138.94
2023-07-16T18:28:13.485Z,100151.25
2023-07-16T18:31:16.042Z,100133.13
2023-07-16T18:34:18.706Z,100145.94
2023-07-16T18:37:23.377Z,100154.12
2023-07-16T18:40:26.202Z,100151.91
2023-07-16T18:43:36.452Z,100148.81
2023-07-16T18:46:45.760Z,100163.50
2023-07-16T18:49:48.261Z,100164.47
2023-07-16T18:52:51.026Z,100154.66
2023-07-16T18:55:53.404Z,100158.28
2023-07-16T18:58:56.052Z,100169.97
2023-07-16T19:01:58.711Z,100167.44
2023-07-16T19:05:01.330Z,100170.59
2023-07-16T19:08:03.783Z,100180.22
2023-07-16T19:11:06.417Z,100186.97
2023-07-16T19:14:08.829Z,100184.75
2023-07-16T19:17:15.398Z,100180.97
2023-07-16T19:20:17.779Z,100164.78
2023-07-16T19:23:20.598Z,100172.69
2023-07-16T19:26:23.655Z,100188.63
2023-07-16T19:29:26.535Z,100187.19
2023-07-16T19:32:29.111Z,100185.28
2023-07-16T19:35:33.594Z,100199.34
2023-07-16T19:38:36.431Z,100208.00
2023-07-16T19:41:39.160Z,100206.56
2023-07-16T19:44:41.574Z,100187.72
2023-07-16T19:47:44.374Z,100214.56
2023-07-16T19:50:48.644Z,100218.34
2023-07-16T19:53:51.636Z,100223.37
2023-07-16T19:56:54.090Z,100215.78
2023-07-16T19:59:56.788Z,100203.75
2023-07-16T20:02:59.230Z,100200.56
2023-07-16T20:06:07.180Z,100217.47
2023-07-16T20:09:10.409Z,100209.03
2023-07-16T20:12:13.070Z,100197.81
2023-07-16T20:15:15.568Z,100210.88
2023-07-16T20:18:21.529Z,100208.66
2023-07-16T20:21:25.430Z,100214.94
2023-07-16T20:24:28.121Z,100226.47
2023-07-16T20:27:30.541Z,100196.91
2023-07-16T20:30:34.708Z,100209.84
2023-07-16T20:33:37.128Z,100191.53
2023-07-16T20:36:39.750Z,100223.69
2023-07-16T20:39:43.283Z,100210.09
2023-07-16T20:42:47.234Z,100200.88
2023-07-16T20:45:50.264Z,100199.28
2023-07-16T20:48:52.959Z,100194.53
2023-07-16T20:51:55.292Z,100195.91
2023-07-16T20:54:59.893Z,100213.13
2023-07-16T20:58:03.928Z,100194.09
2023-07-16T21:01:07.611Z,100209.28
2023-07-16T21:04:10.051Z,100207.38
2023-07-16T21:07:12.727Z,100205.91
2023-07-16T21:10:15.690Z,100200.06
2023-07-16T21:13:19.134Z,100199.97
2023-07-16T21:16:21.504Z,100189.22
2023-07-16T21:19:24.170Z,100208.12
2023-07-16T21:22:30.663Z,100201.81
2023-07-16T21:25:33.715Z,100191.75
2023-07-16T21:28:36.092Z,100186.16
2023-07-16T21:31:38.783Z,100195.66
2023-07-16T21:34:41.368Z,100191.69
2023-07-16T21:37:44.379Z,100210.94
2023-07-16T21:40:46.871Z,100198.72
2023-07-16T21:43:49.525Z,100199.63
2023-07-16T21:46:52.047Z,100198.12
2023-07-16T21:49:55.426Z,100213.44
2023-07-16T21:52:59.956Z,100199.63
2023-07-16T21:56:02.722Z,100205.41
2023-07-16T21:59:06.498Z,100207.00
2023-07-16T22:02:09.339Z,100213.34
2023-07-16T22:05:12.557Z,100221.06
2023-07-16T22:08:15.236Z,100205.66
2023-07-16T22:11:18.352Z,100213.03
2023-07-16T22:14:21.146Z,100220.37
2023-07-16T22:17:25.303Z,100225.25
2023-07-16T22:20:28.544Z,100215.31
2023-07-16T22:23:31.249Z,100218.12
2023-07-16T22:26:34.649Z,100230.00
2023-07-16T22:29:37.370Z,100242.12
2023-07-16T22:32:39.881Z,100243.38
2023-07-16T22:35:42.554Z,100231.59
2023-07-16T22:38:45.389Z,100237.81
2023-07-16T22:41:47.967Z,100236.94
2023-07-16T22:44:50.294Z,100246.44
2023-07-16T22:47:53.055Z,100248.16
2023-07-16T22:50:55.560Z,100242.59
2023-07-16T22:53:59.273Z,100239.44
2023-07-16T22:57:01.635Z,100232.50
2023-07-16T23:00:06.037Z,100247.22
2023-07-16T23:03:09.691Z,100253.34
2023-07-16T23:06:12.229Z,100248.91
2023-07-16T23:09:14.947Z,100253.00
2023-07-16T23:12:17.591Z,100253.44
2023-07-16T23:15:20.243Z,100239.16
2023-07-16T23:18:23.039Z,100254.34
2023-07-16T23:21:25.447Z,100246.97
2023-07-16T23:24:28.408Z,100254.09
2023-07-16T23:27:30.757Z,100256.12
2023-07-16T23:30:37.787Z,100239.94
2023-07-16T23:33:40.162Z,100250.00
2023-07-16T23:36:42.948Z,100239.59
2023-07-16T23:39:45.307Z,100253.16
2023-07-16T23:42:49.724Z,100246.84
2023-07-16T23:45:52.062Z,100233.13
2023-07-16T23:48:54.645Z,100231.09
2023-07-16T23:51:57.047Z,100244.00
2023-07-16T23:55:00.132Z,100237.66
2023-07-16T23:58:02.558Z,100235.62
